Ocracoke, NC (27960)

7:28 PM EST on February 14, 2016 (GMT -0500)
The Ocracoke Harbor Inn/Silver Lake | | Change Station
CLOSE
Current Station
Personal Weather Station
Location: Ocracoke, NC
Elevation: 15 ft
Nearby Weather Stations

Elev 15 ft 35.11 °N, 75.98 °W | Updated 5 seconds ago

Overcast
Overcast
28.8 °F
Feels Like 22 °F
N
6.0
Wind Variable Wind from NNE
Gusts 12.0 mph

Today
High -- | Low -- °F
--% Chance of Precip.
Yesterday
High -- | Low -- °F
Precip. -- in
Pressure 30.53 in
Visibility 10.0 miles
Clouds Mostly Cloudy 8500 ft
Windchill 22 °F
Dew Point 22 °F
Humidity 74%
Rainfall in
Snow Depth Not available.
6:51 AM 5:45 PM
Waxing Crescent, 47% visible
METAR KHSE 142351Z AUTO 05006KT 10SM BKN085 M03/M09 A3053 RMK AO2 SLP339 T10331089 11011 21033 51015 TSNO
Pressure 30.53 in
Visibility 10.0 miles
Clouds Mostly Cloudy 8500 ft
Windchill 22 °F
Dew Point 22 °F
Humidity 74%
Rainfall in
Snow Depth Not available.
6:51 AM 5:45 PM
Waxing Crescent, 47% visible
METAR KHSE 142351Z AUTO 05006KT 10SM BKN085 M03/M09 A3053 RMK AO2 SLP339 T10331089 11011 21033 51015 TSNO

10-Day Weather Forecast

Almanac

Astronomy

Feb. 14, 2016 Rise Set
Actual Time
Civil Twilight
Nautical Twilight
Astronomical Twilight
Moon
Length of Visible Light
Length of Day
Tomorrow will be .
, % of the Moon is Illuminated

Today's Extremes

State Highs State Lows

Community

WunderPhotos

Upload Photos

1,892,944 photos uploaded!

WunderBlog® & News

Nearby

Air Quality

  Air Quality AQ Index Pollutant
Not available.

Snow Depth

Station Depth Elevation

Earthquake Activity

City Distance Mag. Time & Date
Minimum magnitude displayed is 2.5.

Coastal Water Temperatures

Place Temperature

Stations

Nearby Weather Stations

Station Location Temp. Windchill Dew Point Humidity Wind Precip. Elev Updated Type
                   

Watches & Warnings

There are currently no watches in effect.